createdAt,value
2023-05-11T00:00:42.501Z,6.00
2023-05-11T00:03:14.616Z,5.97
2023-05-11T00:05:42.786Z,5.94
2023-05-11T00:08:11.109Z,5.91
2023-05-11T00:10:39.467Z,5.84
2023-05-11T00:13:07.188Z,5.79
2023-05-11T00:15:35.237Z,5.74
2023-05-11T00:18:03.219Z,5.73
2023-05-11T00:20:31.120Z,5.69
2023-05-11T00:22:59.388Z,5.68
2023-05-11T00:25:27.622Z,5.73
2023-05-11T00:27:55.466Z,5.74
2023-05-11T00:30:23.260Z,5.74
2023-05-11T00:32:52.216Z,5.71
2023-05-11T00:35:20.079Z,5.66
2023-05-11T00:37:48.408Z,5.62
2023-05-11T00:40:16.991Z,5.60
2023-05-11T00:42:44.912Z,5.57
2023-05-11T00:45:12.742Z,5.55
2023-05-11T00:47:41.798Z,5.53
2023-05-11T00:50:09.735Z,5.50
2023-05-11T00:52:37.541Z,5.48
2023-05-11T00:55:06.827Z,5.45
2023-05-11T00:57:36.258Z,5.40
2023-05-11T01:00:04.429Z,5.38
2023-05-11T01:02:32.281Z,5.38
2023-05-11T01:05:01.913Z,5.35
2023-05-11T01:07:39.222Z,5.32
2023-05-11T01:10:18.374Z,5.28
2023-05-11T01:13:14.811Z,5.26
2023-05-11T01:15:52.169Z,5.26
2023-05-11T01:18:30.870Z,5.24
2023-05-11T01:21:02.348Z,5.21
2023-05-11T01:23:36.332Z,5.20
2023-05-11T01:26:51.108Z,5.17
2023-05-11T01:29:21.822Z,5.10
2023-05-11T01:31:52.795Z,5.02
2023-05-11T01:34:26.447Z,4.98
2023-05-11T01:37:20.350Z,4.96
2023-05-11T01:39:57.558Z,4.94
2023-05-11T01:42:32.723Z,4.93
2023-05-11T01:45:04.234Z,4.91
2023-05-11T01:47:32.256Z,4.90
2023-05-11T01:50:02.839Z,4.90
2023-05-11T01:52:32.245Z,4.89
2023-05-11T01:55:03.380Z,4.89
2023-05-11T01:57:33.099Z,4.87
2023-05-11T02:00:02.531Z,4.85
2023-05-11T02:02:32.363Z,4.81
2023-05-11T02:05:01.959Z,4.76
2023-05-11T02:07:32.107Z,4.73
2023-05-11T02:10:01.275Z,4.70
2023-05-11T02:12:33.855Z,4.67
2023-05-11T02:15:03.846Z,4.67
2023-05-11T02:17:32.818Z,4.67
2023-05-11T02:20:04.048Z,4.67
2023-05-11T02:22:34.155Z,4.65
2023-05-11T02:25:02.326Z,4.64
2023-05-11T02:27:30.254Z,4.61
2023-05-11T02:29:58.209Z,4.57
2023-05-11T02:32:30.007Z,4.55
2023-05-11T02:35:06.043Z,4.55
2023-05-11T02:37:40.863Z,4.52
2023-05-11T02:40:17.270Z,4.50
2023-05-11T02:42:48.909Z,4.51
2023-05-11T02:45:19.507Z,4.51
2023-05-11T02:47:56.351Z,4.51
2023-05-11T02:50:28.402Z,4.51
2023-05-11T02:53:00.815Z,4.51
2023-05-11T02:55:29.387Z,4.48
2023-05-11T02:57:58.019Z,4.50
2023-05-11T03:00:25.890Z,4.50
2023-05-11T03:02:53.824Z,4.51
2023-05-11T03:05:21.728Z,4.52
2023-05-11T03:07:49.502Z,4.52
2023-05-11T03:10:17.790Z,4.53
2023-05-11T03:12:46.767Z,4.57
2023-05-11T03:15:15.964Z,4.60
2023-05-11T03:17:44.440Z,4.64
2023-05-11T03:20:12.774Z,4.73
2023-05-11T03:22:40.931Z,4.80
2023-05-11T03:25:09.950Z,4.86
2023-05-11T03:27:41.245Z,4.95
2023-05-11T03:30:11.267Z,5.04
2023-05-11T03:32:39.027Z,5.10
2023-05-11T03:35:07.882Z,5.17
2023-05-11T03:37:38.496Z,5.29
2023-05-11T03:40:08.282Z,5.41
2023-05-11T03:42:38.108Z,5.50
2023-05-11T03:45:09.315Z,5.60
2023-05-11T03:47:41.200Z,5.67
2023-05-11T03:50:09.687Z,5.75
2023-05-11T03:52:37.982Z,5.82
2023-05-11T03:55:06.494Z,5.92
2023-05-11T03:57:35.097Z,6.03
2023-05-11T04:00:03.548Z,6.13
2023-05-11T04:02:31.860Z,6.19
2023-05-11T04:04:59.659Z,6.22
2023-05-11T04:07:27.390Z,6.27
2023-05-11T04:09:55.130Z,6.31
2023-05-11T04:12:22.915Z,6.35
2023-05-11T04:14:51.295Z,6.38
2023-05-11T04:17:19.090Z,6.41
2023-05-11T04:19:46.806Z,6.47
2023-05-11T04:22:14.607Z,6.52
2023-05-11T04:24:42.300Z,6.60
2023-05-11T04:27:10.025Z,6.67
2023-05-11T04:29:38.284Z,6.75
2023-05-11T04:32:06.134Z,6.79
2023-05-11T04:34:33.946Z,6.84
2023-05-11T04:37:07.141Z,6.92
2023-05-11T04:39:35.604Z,6.99
2023-05-11T04:42:03.918Z,7.03
2023-05-11T04:44:31.666Z,7.08
2023-05-11T04:46:59.585Z,7.09
2023-05-11T04:49:30.944Z,7.14
2023-05-11T04:51:58.653Z,7.25
2023-05-11T04:54:30.989Z,7.37
2023-05-11T04:56:59.221Z,7.42
2023-05-11T04:59:26.974Z,7.47
2023-05-11T05:01:54.892Z,7.55
2023-05-11T05:04:30.475Z,7.61
2023-05-11T05:06:58.835Z,7.67
2023-05-11T05:09:27.079Z,7.71
2023-05-11T05:12:00.917Z,7.74
2023-05-11T05:14:37.892Z,7.75
2023-05-11T05:17:05.768Z,7.76
2023-05-11T05:19:36.879Z,7.80
2023-05-11T05:22:05.504Z,7.87
2023-05-11T05:24:36.007Z,7.93
2023-05-11T05:27:03.898Z,8.01
2023-05-11T05:29:34.104Z,8.05
2023-05-11T05:32:02.287Z,8.10
2023-05-11T05:34:33.436Z,8.11
2023-05-11T05:37:01.192Z,8.11
2023-05-11T05:39:29.092Z,8.15
2023-05-11T05:41:56.844Z,8.18
2023-05-11T05:44:24.572Z,8.22
2023-05-11T05:46:52.522Z,8.29
2023-05-11T05:49:20.865Z,8.37
2023-05-11T05:51:50.812Z,8.43
2023-05-11T05:54:18.617Z,8.47
2023-05-11T05:56:55.560Z,8.51
2023-05-11T05:59:23.573Z,8.57
2023-05-11T06:01:52.175Z,8.64
2023-05-11T06:04:20.149Z,8.73
2023-05-11T06:06:48.192Z,8.80
2023-05-11T06:09:15.965Z,8.88
2023-05-11T06:11:43.800Z,8.95
2023-05-11T06:14:11.745Z,9.02
2023-05-11T06:16:45.555Z,9.09
2023-05-11T06:19:13.697Z,9.16
2023-05-11T06:21:43.008Z,9.25
2023-05-11T06:24:10.721Z,9.30
2023-05-11T06:26:38.578Z,9.36
2023-05-11T06:29:08.127Z,9.48
2023-05-11T06:31:37.137Z,9.57
2023-05-11T06:34:04.953Z,9.59
2023-05-11T06:36:33.020Z,9.63
2023-05-11T06:39:00.836Z,9.69
2023-05-11T06:41:29.118Z,9.76
2023-05-11T06:43:57.080Z,9.85
2023-05-11T06:46:24.979Z,9.92
2023-05-11T06:48:53.068Z,9.99
2023-05-11T06:51:24.272Z,10.06
2023-05-11T06:53:52.067Z,10.13
2023-05-11T06:56:21.997Z,10.22
2023-05-11T06:59:14.862Z,10.27
2023-05-11T07:01:43.039Z,10.35
2023-05-11T07:04:16.726Z,10.47
2023-05-11T07:06:55.415Z,10.56
2023-05-11T07:09:23.176Z,10.63
2023-05-11T07:11:53.819Z,10.68
2023-05-11T07:14:24.185Z,10.75
2023-05-11T07:16:58.279Z,10.83
2023-05-11T07:19:26.780Z,10.94
2023-05-11T07:21:54.601Z,11.04
2023-05-11T07:24:22.395Z,11.11
2023-05-11T07:27:06.624Z,11.18
2023-05-11T07:29:35.059Z,11.25
2023-05-11T07:32:11.656Z,11.34
2023-05-11T07:34:47.052Z,11.40
2023-05-11T07:37:15.374Z,11.46
2023-05-11T07:39:43.831Z,11.52
2023-05-11T07:42:12.710Z,11.59
2023-05-11T07:44:43.044Z,11.67
2023-05-11T07:47:25.029Z,11.74
2023-05-11T07:50:01.655Z,11.84
2023-05-11T07:52:44.775Z,11.90
2023-05-11T07:55:25.110Z,11.94
2023-05-11T07:58:04.010Z,11.96
2023-05-11T08:00:42.560Z,12.02
2023-05-11T08:03:11.662Z,12.12
2023-05-11T08:05:44.432Z,12.14
2023-05-11T08:08:24.421Z,12.19
2023-05-11T08:10:58.455Z,12.25
2023-05-11T08:13:34.476Z,12.32
2023-05-11T08:16:03.215Z,12.35
2023-05-11T08:18:36.783Z,12.41
2023-05-11T08:21:04.845Z,12.45
2023-05-11T08:23:35.720Z,12.50
2023-05-11T08:26:04.289Z,12.58
2023-05-11T08:28:37.977Z,12.66
2023-05-11T08:31:08.576Z,12.74
2023-05-11T08:33:42.822Z,12.81
2023-05-11T08:36:17.100Z,12.89
2023-05-11T08:38:45.022Z,12.99
2023-05-11T08:41:13.885Z,13.07
2023-05-11T08:43:43.631Z,13.12
2023-05-11T08:46:29.702Z,13.12
2023-05-11T08:48:59.071Z,13.18
2023-05-11T08:51:32.862Z,13.22
2023-05-11T08:54:00.934Z,13.25
2023-05-11T08:56:29.964Z,13.25
2023-05-11T08:59:01.390Z,13.33
2023-05-11T09:01:29.962Z,13.44
2023-05-11T09:04:05.515Z,13.51
2023-05-11T09:06:39.138Z,13.57
2023-05-11T09:09:10.452Z,13.62
2023-05-11T09:11:39.795Z,13.68
2023-05-11T09:14:17.971Z,13.70
2023-05-11T09:16:46.560Z,13.77
2023-05-11T09:19:22.162Z,13.84
2023-05-11T09:21:52.853Z,13.91
2023-05-11T09:24:21.940Z,13.94
2023-05-11T09:26:50.109Z,14.02
2023-05-11T09:29:21.509Z,14.09
2023-05-11T09:31:49.385Z,14.10
2023-05-11T09:34:19.669Z,14.18
2023-05-11T09:36:57.033Z,14.31
2023-05-11T09:39:44.691Z,14.37
2023-05-11T09:42:24.117Z,14.40
2023-05-11T09:44:58.595Z,14.45
2023-05-11T09:47:27.729Z,14.54
2023-05-11T09:49:56.320Z,14.57
2023-05-11T09:52:27.077Z,14.65
2023-05-11T09:54:55.117Z,14.73
2023-05-11T09:57:27.843Z,14.78
2023-05-11T09:59:59.732Z,14.82
2023-05-11T10:02:31.422Z,14.84
2023-05-11T10:05:01.694Z,14.88
2023-05-11T10:07:33.991Z,14.97
2023-05-11T10:10:08.669Z,15.04
2023-05-11T10:12:42.749Z,15.12
2023-05-11T10:15:17.485Z,15.14
2023-05-11T10:17:45.964Z,15.16
2023-05-11T10:20:14.474Z,15.23
2023-05-11T10:22:45.931Z,15.29
2023-05-11T10:25:16.211Z,15.34
2023-05-11T10:30:30.799Z,15.37
2023-05-11T10:33:01.079Z,15.37
2023-05-11T10:35:30.649Z,15.43
2023-05-11T10:37:58.914Z,15.49
2023-05-11T10:40:27.274Z,15.52
2023-05-11T10:43:15.929Z,15.58
2023-05-11T10:46:30.448Z,15.66
2023-05-11T10:49:33.941Z,15.78
2023-05-11T10:52:31.235Z,15.79
2023-05-11T10:55:25.059Z,15.84
2023-05-11T10:57:58.708Z,15.96
2023-05-11T11:01:15.673Z,16.00
2023-05-11T11:03:57.691Z,16.02
2023-05-11T11:06:26.088Z,16.00
2023-05-11T11:09:01.516Z,16.04
2023-05-11T11:11:34.111Z,16.18
2023-05-11T11:14:06.063Z,16.29
2023-05-11T11:16:34.177Z,16.38
2023-05-11T11:19:32.915Z,16.38
2023-05-11T11:22:02.277Z,16.44
2023-05-11T11:24:39.768Z,16.53
2023-05-11T11:27:09.771Z,16.59
2023-05-11T11:29:40.522Z,16.69
2023-05-11T11:32:24.440Z,16.82
2023-05-11T11:34:53.082Z,17.03
2023-05-11T11:37:22.370Z,17.18
2023-05-11T11:39:53.701Z,17.22
2023-05-11T11:42:31.181Z,17.24
2023-05-11T11:45:29.144Z,17.22
2023-05-11T11:48:13.714Z,17.10
2023-05-11T11:50:43.930Z,16.97
2023-05-11T11:53:13.817Z,16.99
2023-05-11T11:55:46.959Z,17.02
2023-05-11T11:58:43.632Z,16.99
2023-05-11T12:01:26.066Z,16.92
2023-05-11T12:04:11.932Z,16.90
2023-05-11T12:06:41.619Z,16.90
2023-05-11T12:09:09.809Z,16.93
2023-05-11T12:11:38.651Z,16.89
2023-05-11T12:14:10.237Z,16.84
2023-05-11T12:16:43.316Z,16.87
2023-05-11T12:19:11.795Z,16.95
2023-05-11T12:21:40.045Z,17.01
2023-05-11T12:24:15.958Z,17.04
2023-05-11T12:26:43.738Z,17.06
2023-05-11T12:29:14.045Z,17.09
2023-05-11T12:31:46.238Z,17.17
2023-05-11T12:34:19.104Z,17.17
2023-05-11T12:36:48.962Z,17.17
2023-05-11T12:39:20.953Z,17.15
2023-05-11T12:41:50.111Z,17.16
2023-05-11T12:44:19.511Z,17.15
2023-05-11T12:46:48.855Z,17.10
2023-05-11T12:49:24.575Z,17.09
2023-05-11T12:51:56.091Z,17.06
2023-05-11T12:54:35.207Z,17.02
2023-05-11T12:57:08.948Z,16.97
2023-05-11T12:59:41.635Z,17.04
2023-05-11T13:02:18.607Z,17.09
2023-05-11T13:04:47.836Z,17.12
2023-05-11T13:07:25.182Z,17.21
2023-05-11T13:10:00.893Z,17.28
2023-05-11T13:12:32.252Z,17.33
2023-05-11T13:15:14.385Z,17.37
2023-05-11T13:17:43.413Z,17.40
2023-05-11T13:20:26.721Z,17.42
2023-05-11T13:23:11.553Z,17.47
2023-05-11T13:25:45.345Z,17.53
2023-05-11T13:28:18.686Z,17.58
2023-05-11T13:30:51.197Z,17.64
2023-05-11T13:33:19.821Z,17.71
2023-05-11T13:35:47.695Z,17.85
2023-05-11T13:38:15.506Z,17.96
2023-05-11T13:40:43.224Z,17.97
2023-05-11T13:43:10.933Z,17.87
2023-05-11T13:45:41.329Z,17.81
2023-05-11T13:48:10.966Z,17.81
2023-05-11T13:50:39.740Z,17.77
2023-05-11T13:53:07.517Z,17.74
2023-05-11T13:55:43.455Z,17.70
2023-05-11T13:58:11.353Z,17.65
2023-05-11T14:00:40.260Z,17.62
2023-05-11T14:03:08.277Z,17.64
2023-05-11T14:05:38.513Z,17.76
2023-05-11T14:08:07.011Z,17.88
2023-05-11T14:10:34.869Z,17.94
2023-05-11T14:13:02.717Z,17.95
2023-05-11T14:15:30.949Z,17.90
2023-05-11T14:17:58.902Z,17.83
2023-05-11T14:20:27.121Z,17.78
2023-05-11T14:22:54.865Z,17.74
2023-05-11T14:25:22.935Z,17.70
2023-05-11T14:27:54.655Z,17.68
2023-05-11T14:30:22.834Z,17.64
2023-05-11T14:32:52.721Z,17.61
2023-05-11T14:35:21.408Z,17.59
2023-05-11T14:37:49.340Z,17.59
2023-05-11T14:40:17.047Z,17.60
2023-05-11T14:42:45.453Z,17.59
2023-05-11T14:45:13.169Z,17.59
2023-05-11T14:47:41.017Z,17.59
2023-05-11T14:50:09.803Z,17.57
2023-05-11T14:52:37.674Z,17.56
2023-05-11T14:55:05.847Z,17.54
2023-05-11T14:57:34.124Z,17.52
2023-05-11T15:00:01.937Z,17.53
2023-05-11T15:02:29.936Z,17.56
2023-05-11T15:04:58.037Z,17.56
2023-05-11T15:07:26.861Z,17.58
2023-05-11T15:09:54.849Z,17.57
2023-05-11T15:12:23.229Z,17.53
2023-05-11T15:14:54.432Z,17.54
2023-05-11T15:17:22.291Z,17.55
2023-05-11T15:19:52.975Z,17.52
2023-05-11T15:22:22.604Z,17.52
2023-05-11T15:24:50.442Z,17.53
2023-05-11T15:27:18.198Z,17.52
2023-05-11T15:29:46.311Z,17.52
2023-05-11T15:32:15.461Z,17.52
2023-05-11T15:34:57.928Z,17.52
2023-05-11T15:37:28.540Z,17.52
2023-05-11T15:39:56.581Z,17.54
2023-05-11T15:42:25.060Z,17.57
2023-05-11T15:44:55.367Z,17.61
2023-05-11T15:47:26.392Z,17.63
2023-05-11T15:49:54.614Z,17.67
2023-05-11T15:52:22.387Z,17.71
2023-05-11T15:54:50.322Z,17.75
2023-05-11T15:57:18.664Z,17.78
2023-05-11T15:59:46.701Z,17.79
2023-05-11T16:02:14.587Z,17.81
2023-05-11T16:04:42.398Z,17.82
2023-05-11T16:07:10.232Z,17.84
2023-05-11T16:09:38.355Z,17.87
2023-05-11T16:12:07.055Z,17.90
2023-05-11T16:14:34.871Z,17.91
2023-05-11T16:17:03.215Z,17.92
2023-05-11T16:19:33.589Z,17.91
2023-05-11T16:22:01.347Z,17.87
2023-05-11T16:24:32.151Z,17.84
2023-05-11T16:27:01.909Z,17.80
2023-05-11T16:29:29.719Z,17.78
2023-05-11T16:31:57.606Z,17.76
2023-05-11T16:34:25.429Z,17.74
2023-05-11T16:36:53.164Z,17.70
2023-05-11T16:39:21.578Z,17.66
2023-05-11T16:41:49.775Z,17.62
2023-05-11T16:44:17.616Z,17.56
2023-05-11T16:46:45.499Z,17.52
2023-05-11T16:49:13.319Z,17.47
2023-05-11T16:51:41.708Z,17.39
2023-05-11T16:54:10.601Z,17.34
2023-05-11T16:56:38.837Z,17.26
2023-05-11T16:59:06.734Z,17.18
2023-05-11T17:01:34.488Z,17.10
2023-05-11T17:04:02.981Z,17.04
2023-05-11T17:06:32.072Z,16.98
2023-05-11T17:09:00.196Z,16.93
2023-05-11T17:11:28.435Z,16.89
2023-05-11T17:13:56.443Z,16.86
2023-05-11T17:16:24.892Z,16.84
2023-05-11T17:18:52.952Z,16.83
2023-05-11T17:21:20.789Z,16.80
2023-05-11T17:23:48.707Z,16.77
2023-05-11T17:26:16.881Z,16.72
2023-05-11T17:28:44.629Z,16.66
2023-05-11T17:31:15.476Z,16.57
2023-05-11T17:33:43.442Z,16.46
2023-05-11T17:36:12.722Z,16.31
2023-05-11T17:38:41.032Z,16.15
2023-05-11T17:41:14.592Z,16.00
2023-05-11T17:44:08.351Z,15.81
2023-05-11T17:46:36.164Z,15.60
2023-05-11T17:49:05.285Z,15.43
2023-05-11T17:51:33.132Z,15.26
2023-05-11T17:54:00.942Z,15.12
2023-05-11T17:56:28.702Z,14.96
2023-05-11T17:58:56.757Z,14.81
2023-05-11T18:01:31.679Z,14.68
2023-05-11T18:04:00.948Z,14.53
2023-05-11T18:06:29.436Z,14.38
2023-05-11T18:08:58.916Z,14.25
2023-05-11T18:11:27.423Z,14.11
2023-05-11T18:13:55.241Z,13.99
2023-05-11T18:16:23.635Z,13.87
2023-05-11T18:18:52.063Z,13.73
2023-05-11T18:21:19.929Z,13.60
2023-05-11T18:23:47.701Z,13.48
2023-05-11T18:26:16.385Z,13.36
2023-05-11T18:28:44.690Z,13.25
2023-05-11T18:31:13.032Z,13.14
2023-05-11T18:33:40.975Z,13.05
2023-05-11T18:36:08.691Z,12.95
2023-05-11T18:38:36.553Z,12.86
2023-05-11T18:41:05.824Z,12.75
2023-05-11T18:43:34.530Z,12.66
2023-05-11T18:46:07.624Z,12.58
2023-05-11T18:48:35.576Z,12.50
2023-05-11T18:51:06.050Z,12.43
2023-05-11T18:53:34.039Z,12.37
2023-05-11T18:56:01.784Z,12.32
2023-05-11T18:58:30.050Z,12.26
2023-05-11T19:01:01.313Z,12.21
2023-05-11T19:03:31.805Z,12.15
2023-05-11T19:06:02.886Z,12.11
2023-05-11T19:08:31.154Z,12.06
2023-05-11T19:11:08.443Z,12.02
2023-05-11T19:13:36.921Z,11.98
2023-05-11T19:16:05.393Z,11.95
2023-05-11T19:18:35.628Z,11.92
2023-05-11T19:21:05.344Z,11.87
2023-05-11T19:23:33.661Z,11.82
2023-05-11T19:26:01.865Z,11.79
2023-05-11T19:28:32.128Z,11.76
2023-05-11T19:31:02.233Z,11.72
2023-05-11T19:33:41.764Z,11.68
2023-05-11T19:36:12.548Z,11.63
2023-05-11T19:38:40.320Z,11.58
2023-05-11T19:41:09.008Z,11.54
2023-05-11T19:43:37.623Z,11.47
2023-05-11T19:46:08.408Z,11.43
2023-05-11T19:48:36.554Z,11.39
2023-05-11T19:51:04.663Z,11.37
2023-05-11T19:53:33.294Z,11.31
2023-05-11T19:56:01.124Z,11.25
2023-05-11T19:58:31.586Z,11.19
2023-05-11T20:01:00.189Z,11.13
2023-05-11T20:03:28.944Z,11.09
2023-05-11T20:05:57.186Z,11.05
2023-05-11T20:08:25.451Z,11.01
2023-05-11T20:10:53.123Z,10.97
2023-05-11T20:13:21.220Z,10.94
2023-05-11T20:15:49.579Z,10.91
2023-05-11T20:18:18.826Z,10.86
2023-05-11T20:20:46.595Z,10.83
2023-05-11T20:23:14.993Z,10.79
2023-05-11T20:25:44.158Z,10.75
2023-05-11T20:28:12.438Z,10.71
2023-05-11T20:30:40.673Z,10.67
2023-05-11T20:35:45.242Z,10.60
2023-05-11T20:38:13.886Z,10.57
2023-05-11T20:40:44.564Z,10.52
2023-05-11T20:43:15.138Z,10.48
2023-05-11T20:45:43.864Z,10.44
2023-05-11T20:48:12.278Z,10.40
2023-05-11T20:50:40.728Z,10.36
2023-05-11T20:53:08.899Z,10.33
2023-05-11T20:55:36.967Z,10.29
2023-05-11T20:58:05.199Z,10.26
2023-05-11T21:00:33.098Z,10.21
2023-05-11T21:03:01.495Z,10.17
2023-05-11T21:05:29.473Z,10.13
2023-05-11T21:07:58.001Z,10.11
2023-05-11T21:10:26.319Z,10.10
2023-05-11T21:12:54.284Z,10.08
2023-05-11T21:15:22.856Z,10.05
2023-05-11T21:17:50.628Z,10.03
2023-05-11T21:20:18.778Z,10.00
2023-05-11T21:22:47.695Z,9.97
2023-05-11T21:25:15.610Z,9.94
2023-05-11T21:27:43.474Z,9.91
2023-05-11T21:30:11.928Z,9.89
2023-05-11T21:32:39.665Z,9.85
2023-05-11T21:35:08.117Z,9.82
2023-05-11T21:37:36.524Z,9.79
2023-05-11T21:40:23.541Z,9.76
2023-05-11T21:42:51.349Z,9.75
2023-05-11T21:45:20.002Z,9.73
2023-05-11T21:47:47.834Z,9.71
2023-05-11T21:50:17.371Z,9.69
2023-05-11T21:52:45.389Z,9.68
2023-05-11T21:55:13.173Z,9.65
2023-05-11T21:57:40.986Z,9.63
2023-05-11T22:00:11.223Z,9.61
2023-05-11T22:02:39.142Z,9.59
2023-05-11T22:05:07.812Z,9.58
2023-05-11T22:07:35.709Z,9.55
2023-05-11T22:10:03.830Z,9.52
2023-05-11T22:12:31.679Z,9.49
2023-05-11T22:14:59.386Z,9.46
2023-05-11T22:17:27.695Z,9.45
2023-05-11T22:19:55.456Z,9.42
2023-05-11T22:22:23.257Z,9.39
2023-05-11T22:24:51.215Z,9.37
2023-05-11T22:27:19.220Z,9.34
2023-05-11T22:29:48.056Z,9.31
2023-05-11T22:32:16.492Z,9.28
2023-05-11T22:34:44.521Z,9.25
2023-05-11T22:37:12.252Z,9.22
2023-05-11T22:39:40.128Z,9.17
2023-05-11T22:42:08.183Z,9.12
2023-05-11T22:44:36.553Z,9.07
2023-05-11T22:47:07.801Z,9.02
2023-05-11T22:49:36.014Z,8.96
2023-05-11T22:52:05.254Z,8.88
2023-05-11T22:54:33.206Z,8.84
2023-05-11T22:57:01.658Z,8.81
2023-05-11T22:59:29.709Z,8.79
2023-05-11T23:02:02.055Z,8.77
2023-05-11T23:04:32.490Z,8.77
2023-05-11T23:07:00.384Z,8.76
2023-05-11T23:09:28.544Z,8.75
2023-05-11T23:11:56.319Z,8.73
2023-05-11T23:14:27.232Z,8.72
2023-05-11T23:16:55.692Z,8.69
2023-05-11T23:19:25.268Z,8.67
2023-05-11T23:21:53.184Z,8.65
2023-05-11T23:24:21.675Z,8.63
2023-05-11T23:26:49.436Z,8.61
2023-05-11T23:29:17.245Z,8.59
2023-05-11T23:31:45.839Z,8.56
2023-05-11T23:34:14.464Z,8.53
2023-05-11T23:36:42.547Z,8.50
2023-05-11T23:39:10.929Z,8.50
2023-05-11T23:41:38.985Z,8.48
2023-05-11T23:44:06.797Z,8.45
2023-05-11T23:46:36.207Z,8.42
2023-05-11T23:49:04.501Z,8.39
2023-05-11T23:51:32.499Z,8.37
2023-05-11T23:54:00.258Z,8.34
2023-05-11T23:56:28.204Z,8.31
2023-05-11T23:58:55.931Z,8.29
